createdAt,value
2023-03-05T00:01:38.422Z,64.53
2023-03-05T00:04:08.284Z,64.30
2023-03-05T00:06:37.639Z,63.71
2023-03-05T00:09:05.877Z,63.64
2023-03-05T00:11:38.334Z,63.20
2023-03-05T00:14:06.891Z,63.05
2023-03-05T00:16:34.999Z,62.19
2023-03-05T00:19:05.663Z,61.62
2023-03-05T00:21:36.540Z,62.02
2023-03-05T00:24:11.799Z,61.64
2023-03-05T00:26:42.422Z,62.02
2023-03-05T00:29:11.693Z,62.08
2023-03-05T00:31:44.412Z,62.17
2023-03-05T00:34:14.108Z,61.95
2023-03-05T00:36:43.279Z,62.20
2023-03-05T00:39:12.302Z,62.19
2023-03-05T00:41:40.587Z,62.21
2023-03-05T00:45:53.461Z,62.35
2023-03-05T00:48:21.941Z,62.72
2023-03-05T00:50:49.005Z,62.62
2023-03-05T00:53:15.775Z,62.68
2023-03-05T00:55:42.357Z,62.52
2023-03-05T00:58:09.416Z,62.70
2023-03-05T01:00:36.098Z,62.97
2023-03-05T01:03:04.064Z,62.91
2023-03-05T01:05:31.114Z,63.10
2023-03-05T01:07:58.888Z,63.24
2023-03-05T01:10:31.755Z,63.24
2023-03-05T01:13:00.941Z,63.34
2023-03-05T01:15:28.313Z,63.28
2023-03-05T01:17:55.045Z,63.42
2023-03-05T01:20:21.873Z,63.63
2023-03-05T01:22:49.042Z,63.51
2023-03-05T01:25:16.121Z,63.49
2023-03-05T01:27:42.781Z,63.31
2023-03-05T01:30:12.718Z,63.27
2023-03-05T01:32:40.457Z,63.34
2023-03-05T01:35:07.938Z,63.29
2023-03-05T01:37:35.913Z,63.29
2023-03-05T01:40:02.837Z,63.22
2023-03-05T01:42:34.380Z,63.47
2023-03-05T01:45:14.465Z,63.37
2023-03-05T01:47:41.136Z,63.67
2023-03-05T01:50:19.323Z,63.62
2023-03-05T01:52:50.050Z,63.78
2023-03-05T01:55:22.516Z,63.96
2023-03-05T01:57:51.630Z,64.04
2023-03-05T02:00:20.621Z,64.25
2023-03-05T02:02:49.607Z,64.33
2023-03-05T02:05:26.508Z,64.40
2023-03-05T02:07:55.099Z,64.41
2023-03-05T02:10:29.758Z,64.55
2023-03-05T02:12:58.365Z,64.69
2023-03-05T02:15:25.050Z,64.65
2023-03-05T02:17:51.669Z,64.78
2023-03-05T02:20:28.603Z,65.08
2023-03-05T02:22:55.613Z,65.34
2023-03-05T02:25:25.813Z,65.40
2023-03-05T02:28:11.074Z,65.34
2023-03-05T02:30:41.013Z,65.32
2023-03-05T02:33:07.956Z,65.21
2023-03-05T02:35:35.320Z,65.45
2023-03-05T02:38:03.271Z,65.53
2023-03-05T02:40:29.887Z,65.57
2023-03-05T02:42:56.465Z,65.77
2023-03-05T02:45:23.576Z,65.92
2023-03-05T02:47:50.510Z,65.90
2023-03-05T02:50:17.393Z,65.85
2023-03-05T02:52:44.672Z,65.90
2023-03-05T02:55:14.905Z,65.94
2023-03-05T02:57:42.154Z,65.86
2023-03-05T03:00:09.909Z,65.89
2023-03-05T03:02:38.328Z,65.84
2023-03-05T03:05:07.532Z,66.13
2023-03-05T03:07:35.997Z,66.09
2023-03-05T03:10:05.000Z,66.25
2023-03-05T03:12:31.631Z,66.30
2023-03-05T03:15:00.216Z,66.38
2023-03-05T03:17:36.302Z,66.40
2023-03-05T03:20:07.550Z,66.24
2023-03-05T03:22:34.083Z,66.09
2023-03-05T03:25:00.908Z,66.06
2023-03-05T03:27:27.826Z,66.05
2023-03-05T03:29:54.445Z,66.08
2023-03-05T03:32:21.685Z,65.96
2023-03-05T03:34:48.456Z,66.18
2023-03-05T03:37:15.545Z,66.05
2023-03-05T03:39:42.173Z,66.07
2023-03-05T03:42:09.345Z,66.33
2023-03-05T03:44:36.087Z,66.38
2023-03-05T03:47:03.512Z,66.50
2023-03-05T03:49:30.796Z,66.66
2023-03-05T03:51:58.160Z,66.62
2023-03-05T03:54:24.842Z,66.60
2023-03-05T03:56:52.028Z,66.74
2023-03-05T03:59:19.100Z,66.94
2023-03-05T04:01:45.963Z,66.82
2023-03-05T04:04:12.671Z,66.86
2023-03-05T04:06:39.988Z,66.80
2023-03-05T04:09:13.103Z,66.62
2023-03-05T04:11:39.813Z,66.69
2023-03-05T04:14:07.172Z,66.39
2023-03-05T04:16:36.834Z,66.71
2023-03-05T04:19:03.535Z,66.74
2023-03-05T04:21:30.205Z,66.63
2023-03-05T04:23:57.112Z,66.55
2023-03-05T04:26:23.896Z,66.72
2023-03-05T04:28:50.438Z,66.80
2023-03-05T04:31:17.036Z,66.63
2023-03-05T04:33:46.868Z,66.72
2023-03-05T04:36:13.499Z,66.95
2023-03-05T04:38:46.040Z,66.85
2023-03-05T04:41:12.742Z,66.65
2023-03-05T04:43:39.350Z,66.60
2023-03-05T04:46:06.061Z,66.66
2023-03-05T04:48:32.872Z,66.85
2023-03-05T04:51:00.278Z,66.76
2023-03-05T04:53:27.340Z,66.73
2023-03-05T04:56:00.852Z,66.70
2023-03-05T04:58:28.152Z,66.79
2023-03-05T05:01:00.431Z,66.85
2023-03-05T05:03:27.096Z,66.90
2023-03-05T05:05:55.495Z,66.64
2023-03-05T05:08:22.692Z,66.57
2023-03-05T05:11:01.349Z,66.47
2023-03-05T05:13:30.401Z,66.08
2023-03-05T05:15:57.315Z,65.98
2023-03-05T05:18:24.620Z,65.87
2023-03-05T05:20:52.643Z,65.90
2023-03-05T05:23:19.419Z,65.78
2023-03-05T05:25:46.460Z,65.87
2023-03-05T05:28:13.715Z,66.06
2023-03-05T05:30:40.762Z,66.22
2023-03-05T05:33:08.015Z,65.99
2023-03-05T05:35:38.755Z,65.92
2023-03-05T05:38:05.483Z,66.02
2023-03-05T05:40:33.552Z,66.02
2023-03-05T05:43:00.251Z,66.13
2023-03-05T05:45:26.915Z,65.88
2023-03-05T05:47:53.998Z,65.83
2023-03-05T05:50:26.770Z,66.06
2023-03-05T05:52:53.848Z,65.95
2023-03-05T05:55:20.708Z,65.82
2023-03-05T05:58:07.092Z,65.82
2023-03-05T06:00:33.836Z,65.93
2023-03-05T06:03:00.450Z,65.66
2023-03-05T06:05:27.084Z,65.53
2023-03-05T06:07:54.186Z,65.57
2023-03-05T06:10:21.044Z,65.11
2023-03-05T06:12:48.098Z,64.93
2023-03-05T06:15:14.973Z,64.66
2023-03-05T06:17:42.213Z,64.49
2023-03-05T06:20:11.915Z,64.37
2023-03-05T06:22:38.982Z,64.24
2023-03-05T06:25:07.161Z,64.56
2023-03-05T06:27:34.866Z,64.20
2023-03-05T06:30:01.844Z,64.41
2023-03-05T06:32:29.118Z,64.10
2023-03-05T06:34:55.767Z,63.56
2023-03-05T06:37:22.448Z,63.81
2023-03-05T06:39:49.292Z,63.41
2023-03-05T06:42:18.792Z,63.39
2023-03-05T06:44:47.258Z,62.93
2023-03-05T06:47:14.953Z,62.89
2023-03-05T06:49:42.383Z,62.59
2023-03-05T06:52:12.185Z,62.59
2023-03-05T06:54:39.701Z,62.68
2023-03-05T06:57:06.693Z,62.69
2023-03-05T06:59:33.624Z,62.09
2023-03-05T07:02:00.607Z,62.18
2023-03-05T07:04:27.623Z,62.23
2023-03-05T07:06:55.250Z,61.92
2023-03-05T07:09:22.202Z,61.81
2023-03-05T07:11:49.720Z,61.62
2023-03-05T07:14:17.210Z,61.65
2023-03-05T07:16:44.888Z,61.83
2023-03-05T07:19:14.884Z,61.80
2023-03-05T07:21:41.667Z,61.95
2023-03-05T07:24:13.713Z,62.00
2023-03-05T07:26:42.173Z,61.45
2023-03-05T07:29:09.349Z,61.05
2023-03-05T07:31:38.745Z,60.27
2023-03-05T07:34:05.910Z,60.35
2023-03-05T07:36:34.383Z,60.47
2023-03-05T07:39:05.303Z,60.69
2023-03-05T07:41:35.069Z,60.92
2023-03-05T07:44:02.849Z,60.63
2023-03-05T07:46:32.199Z,60.37
2023-03-05T07:48:59.670Z,60.02
2023-03-05T07:51:26.672Z,59.43
2023-03-05T07:53:57.125Z,59.36
2023-03-05T07:56:31.376Z,59.33
2023-03-05T07:58:59.145Z,59.96
2023-03-05T08:01:26.487Z,60.03
2023-03-05T08:03:53.124Z,60.21
2023-03-05T08:06:20.432Z,60.09
2023-03-05T08:08:48.296Z,59.50
2023-03-05T08:11:16.584Z,59.16
2023-03-05T08:13:44.860Z,59.79
2023-03-05T08:16:20.294Z,59.82
2023-03-05T08:18:54.876Z,59.68
2023-03-05T08:21:26.448Z,59.80
2023-03-05T08:23:53.247Z,58.87
2023-03-05T08:26:21.415Z,58.04
2023-03-05T08:28:48.429Z,57.81
2023-03-05T08:31:20.934Z,57.83
2023-03-05T08:33:51.649Z,57.39
2023-03-05T08:36:18.776Z,56.94
2023-03-05T08:38:47.988Z,56.91
2023-03-05T08:41:15.854Z,56.77
2023-03-05T08:43:42.750Z,56.46
2023-03-05T08:46:11.454Z,56.85
2023-03-05T08:48:38.668Z,56.13
2023-03-05T08:51:09.571Z,55.35
2023-03-05T08:53:39.112Z,54.61
2023-03-05T08:56:18.034Z,54.25
2023-03-05T08:58:48.338Z,53.65
2023-03-05T09:01:17.829Z,53.82
2023-03-05T09:03:46.015Z,53.33
2023-03-05T09:06:12.950Z,52.83
2023-03-05T09:08:42.042Z,52.15
2023-03-05T09:11:09.598Z,52.29
2023-03-05T09:13:36.582Z,52.79
2023-03-05T09:16:07.650Z,52.26
2023-03-05T09:18:36.188Z,51.47
2023-03-05T09:21:06.954Z,50.70
2023-03-05T09:23:33.854Z,49.09
2023-03-05T09:26:01.781Z,48.74
2023-03-05T09:28:30.491Z,48.38
2023-03-05T09:30:57.193Z,47.79
2023-03-05T09:33:24.306Z,47.61
2023-03-05T09:35:51.115Z,46.95
2023-03-05T09:38:18.797Z,46.48
2023-03-05T09:41:08.092Z,45.13
2023-03-05T09:44:01.208Z,43.02
2023-03-05T09:46:43.280Z,42.56
2023-03-05T09:49:33.264Z,42.03
2023-03-05T09:52:14.837Z,41.18
2023-03-05T09:54:43.070Z,41.25
2023-03-05T09:57:21.608Z,41.16
2023-03-05T10:00:11.675Z,40.58
2023-03-05T10:02:48.721Z,40.08
2023-03-05T10:05:29.194Z,38.89
2023-03-05T10:08:00.824Z,39.09
2023-03-05T10:10:39.241Z,38.31
2023-03-05T10:13:18.233Z,38.02
2023-03-05T10:16:26.132Z,38.50
2023-03-05T10:19:02.400Z,38.46
2023-03-05T10:21:50.838Z,39.20
2023-03-05T10:24:47.687Z,39.94
2023-03-05T10:27:21.981Z,40.67
2023-03-05T10:30:38.511Z,40.54
2023-03-05T10:33:20.116Z,39.42
2023-03-05T10:36:05.620Z,38.66
2023-03-05T10:38:52.827Z,38.00
2023-03-05T10:41:39.418Z,37.65
2023-03-05T10:44:39.282Z,36.89
2023-03-05T10:47:29.031Z,36.98
2023-03-05T10:49:57.752Z,36.91
2023-03-05T10:52:34.771Z,37.15
2023-03-05T10:55:13.253Z,37.06
2023-03-05T10:57:40.890Z,38.08
2023-03-05T11:00:22.867Z,38.60
2023-03-05T11:03:01.128Z,38.86
2023-03-05T11:05:38.077Z,38.91
2023-03-05T11:08:33.653Z,39.43
2023-03-05T11:11:09.741Z,40.27
2023-03-05T11:13:47.778Z,41.15
2023-03-05T11:16:19.909Z,41.88
2023-03-05T11:18:48.169Z,42.09
2023-03-05T11:21:20.190Z,42.24
2023-03-05T11:24:08.517Z,42.55
2023-03-05T11:26:35.843Z,42.67
2023-03-05T11:29:04.264Z,43.03
2023-03-05T11:31:32.107Z,43.23
2023-03-05T11:34:01.562Z,43.07
2023-03-05T11:36:56.104Z,43.00
2023-03-05T11:39:23.327Z,42.77
2023-03-05T11:41:54.161Z,42.74
2023-03-05T11:44:46.232Z,43.17
2023-03-05T11:47:27.971Z,43.47
2023-03-05T11:50:02.989Z,43.24
2023-03-05T11:52:33.854Z,43.28
2023-03-05T11:55:12.878Z,43.31
2023-03-05T11:57:52.352Z,43.31
2023-03-05T12:00:23.921Z,42.45
2023-03-05T12:02:52.613Z,42.36
2023-03-05T12:05:19.535Z,42.11
2023-03-05T12:07:51.324Z,42.03
2023-03-05T12:10:23.515Z,42.59
2023-03-05T12:13:02.976Z,43.25
2023-03-05T12:15:59.254Z,43.83
2023-03-05T12:18:38.022Z,44.32
2023-03-05T12:21:26.100Z,44.64
2023-03-05T12:24:01.266Z,45.23
2023-03-05T12:27:03.643Z,45.67
2023-03-05T12:29:37.032Z,45.81
2023-03-05T12:32:21.493Z,45.99
2023-03-05T12:34:50.122Z,46.49
2023-03-05T12:37:21.249Z,46.39
2023-03-05T12:40:08.885Z,46.45
2023-03-05T12:42:37.788Z,46.34
2023-03-05T12:45:23.246Z,46.28
2023-03-05T12:47:56.613Z,46.31
2023-03-05T12:50:28.906Z,46.48
2023-03-05T12:53:11.412Z,46.41
2023-03-05T12:55:45.482Z,46.23
2023-03-05T12:58:28.679Z,46.03
2023-03-05T13:04:00.391Z,45.81
2023-03-05T13:06:27.686Z,45.32
2023-03-05T13:09:07.908Z,45.71
2023-03-05T13:11:37.135Z,45.61
2023-03-05T13:14:04.325Z,44.93
2023-03-05T13:16:41.015Z,44.64
2023-03-05T13:19:15.487Z,44.86
2023-03-05T13:21:42.772Z,44.67
2023-03-05T13:24:17.460Z,44.50
2023-03-05T13:26:48.240Z,43.55
2023-03-05T13:29:21.432Z,42.31
2023-03-05T13:32:05.104Z,40.44
2023-03-05T13:34:47.333Z,39.17
2023-03-05T13:37:20.719Z,38.45
2023-03-05T13:39:58.077Z,38.54
2023-03-05T13:42:28.031Z,39.26
2023-03-05T13:45:03.774Z,39.35
2023-03-05T13:47:32.188Z,40.09
2023-03-05T13:50:01.442Z,41.00
2023-03-05T13:52:35.371Z,41.45
2023-03-05T13:55:12.064Z,41.91
2023-03-05T13:57:43.377Z,42.37
2023-03-05T14:00:33.615Z,42.69
2023-03-05T14:03:26.009Z,42.90
2023-03-05T14:05:53.347Z,43.38
2023-03-05T14:08:22.022Z,43.51
2023-03-05T14:10:49.192Z,43.99
2023-03-05T14:13:21.145Z,43.99
2023-03-05T14:16:23.930Z,44.39
2023-03-05T14:18:58.122Z,44.69
2023-03-05T14:21:25.385Z,44.95
2023-03-05T14:23:54.177Z,45.12
2023-03-05T14:26:34.238Z,45.13
2023-03-05T14:29:03.135Z,45.43
2023-03-05T14:31:36.621Z,45.61
2023-03-05T14:34:04.983Z,45.94
2023-03-05T14:36:33.831Z,45.73
2023-03-05T14:39:01.767Z,45.75
2023-03-05T14:41:37.483Z,45.68
2023-03-05T14:44:15.087Z,45.75
2023-03-05T14:46:48.882Z,46.04
2023-03-05T14:49:17.128Z,46.13
2023-03-05T14:51:44.460Z,46.30
2023-03-05T14:54:20.074Z,46.37
2023-03-05T14:56:49.048Z,46.68
2023-03-05T14:59:17.294Z,46.78
2023-03-05T15:01:44.393Z,46.90
2023-03-05T15:04:20.358Z,47.10
2023-03-05T15:06:50.133Z,47.23
2023-03-05T15:09:19.142Z,47.34
2023-03-05T15:11:48.338Z,47.57
2023-03-05T15:14:15.330Z,47.58
2023-03-05T15:16:43.086Z,47.52
2023-03-05T15:19:12.659Z,47.73
2023-03-05T15:21:40.398Z,47.86
2023-03-05T15:24:14.236Z,48.07
2023-03-05T15:26:41.040Z,48.19
2023-03-05T15:29:07.639Z,48.26
2023-03-05T15:31:37.748Z,48.34
2023-03-05T15:34:04.853Z,48.41
2023-03-05T15:36:33.583Z,48.45
2023-03-05T15:39:00.796Z,48.68
2023-03-05T15:41:27.677Z,48.68
2023-03-05T15:43:54.580Z,48.75
2023-03-05T15:46:21.386Z,48.80
2023-03-05T15:48:49.576Z,48.87
2023-03-05T15:51:17.293Z,49.18
2023-03-05T15:53:45.867Z,49.10
2023-03-05T15:56:18.603Z,48.91
2023-03-05T15:58:45.374Z,49.14
2023-03-05T16:01:12.297Z,48.94
2023-03-05T16:03:39.436Z,49.21
2023-03-05T16:06:07.742Z,49.25
2023-03-05T16:08:35.422Z,49.50
2023-03-05T16:11:02.576Z,49.47
2023-03-05T16:13:31.927Z,49.69
2023-03-05T16:16:01.844Z,50.05
2023-03-05T16:18:35.514Z,50.33
2023-03-05T16:21:03.108Z,50.45
2023-03-05T16:23:33.647Z,50.56
2023-03-05T16:26:00.473Z,50.64
2023-03-05T16:28:27.758Z,50.97
2023-03-05T16:30:56.190Z,51.04
2023-03-05T16:33:26.587Z,51.18
2023-03-05T16:36:20.234Z,51.01
2023-03-05T16:38:51.796Z,51.28
2023-03-05T16:41:21.111Z,51.35
2023-03-05T16:43:51.209Z,51.49
2023-03-05T16:46:18.043Z,51.59
2023-03-05T16:48:46.017Z,51.60
2023-03-05T16:51:13.736Z,51.67
2023-03-05T16:53:42.943Z,51.96
2023-03-05T16:56:10.714Z,51.91
2023-03-05T16:58:40.060Z,51.89
2023-03-05T17:01:11.586Z,52.09
2023-03-05T17:03:40.788Z,52.11
2023-03-05T17:06:15.330Z,52.19
2023-03-05T17:08:43.181Z,52.30
2023-03-05T17:11:10.098Z,52.38
2023-03-05T17:13:39.347Z,52.55
2023-03-05T17:16:08.743Z,52.43
2023-03-05T17:18:39.317Z,52.51
2023-03-05T17:21:06.926Z,52.51
2023-03-05T17:23:34.942Z,52.46
2023-03-05T17:26:07.470Z,52.39
2023-03-05T17:28:34.751Z,52.55
2023-03-05T17:31:03.361Z,52.56
2023-03-05T17:33:31.636Z,52.51
2023-03-05T17:35:59.866Z,52.65
2023-03-05T17:38:26.729Z,52.79
2023-03-05T17:40:54.751Z,52.91
2023-03-05T17:43:22.149Z,53.07
2023-03-05T17:45:49.271Z,53.04
2023-03-05T17:48:17.423Z,53.06
2023-03-05T17:50:45.853Z,53.11
2023-03-05T17:53:13.499Z,53.36
2023-03-05T17:55:43.015Z,53.58
2023-03-05T17:58:10.865Z,53.62
2023-03-05T18:00:37.810Z,53.87
2023-03-05T18:03:06.368Z,53.92
2023-03-05T18:05:33.503Z,54.19
2023-03-05T18:08:03.347Z,54.20
2023-03-05T18:10:31.318Z,54.45
2023-03-05T18:12:58.421Z,54.64
2023-03-05T18:15:27.164Z,54.81
2023-03-05T18:17:54.669Z,55.03
2023-03-05T18:20:31.007Z,55.21
2023-03-05T18:22:59.274Z,55.37
2023-03-05T18:25:30.303Z,55.39
2023-03-05T18:28:09.413Z,55.52
2023-03-05T18:30:37.529Z,55.69
2023-03-05T18:33:08.625Z,55.70
2023-03-05T18:35:36.269Z,55.82
2023-03-05T18:38:03.404Z,55.81
2023-03-05T18:40:32.017Z,55.79
2023-03-05T18:43:01.393Z,55.86
2023-03-05T18:45:28.512Z,56.06
2023-03-05T18:47:56.349Z,56.08
2023-03-05T18:50:24.971Z,56.29
2023-03-05T18:52:52.340Z,56.38
2023-03-05T18:55:21.662Z,56.44
2023-03-05T18:57:48.711Z,56.54
2023-03-05T19:00:17.679Z,56.87
2023-03-05T19:02:44.829Z,56.99
2023-03-05T19:05:13.177Z,57.39
2023-03-05T19:07:40.018Z,57.57
2023-03-05T19:10:09.104Z,57.87
2023-03-05T19:12:44.645Z,58.24
2023-03-05T19:15:12.823Z,58.55
2023-03-05T19:17:40.066Z,58.51
2023-03-05T19:20:07.534Z,58.91
2023-03-05T19:22:37.707Z,59.18
2023-03-05T19:25:05.782Z,59.12
2023-03-05T19:27:33.968Z,59.39
2023-03-05T19:30:00.652Z,59.36
2023-03-05T19:32:27.614Z,59.51
2023-03-05T19:34:55.698Z,59.61
2023-03-05T19:37:22.452Z,59.62
2023-03-05T19:39:49.286Z,59.55
2023-03-05T19:42:15.869Z,59.61
2023-03-05T19:44:42.708Z,59.87
2023-03-05T19:47:09.679Z,60.33
2023-03-05T19:49:36.883Z,60.26
2023-03-05T19:52:05.650Z,60.34
2023-03-05T19:54:32.778Z,60.74
2023-03-05T19:56:59.679Z,60.77
2023-03-05T19:59:26.576Z,60.71
2023-03-05T20:01:53.316Z,60.92
2023-03-05T20:04:22.125Z,60.98
2023-03-05T20:06:49.541Z,61.00
2023-03-05T20:09:20.294Z,60.99
2023-03-05T20:11:47.269Z,60.93
2023-03-05T20:14:14.793Z,60.97
2023-03-05T20:16:42.724Z,61.07
2023-03-05T20:19:15.625Z,61.09
2023-03-05T20:21:42.769Z,61.20
2023-03-05T20:24:12.843Z,61.26
2023-03-05T20:26:41.792Z,61.44
2023-03-05T20:29:08.659Z,61.44
2023-03-05T20:31:37.518Z,61.56
2023-03-05T20:34:05.827Z,61.67
2023-03-05T20:36:36.194Z,61.74
2023-03-05T20:39:04.172Z,61.91
2023-03-05T20:41:33.672Z,61.92
2023-03-05T20:44:02.828Z,61.76
2023-03-05T20:46:35.145Z,61.97
2023-03-05T20:49:02.968Z,61.89
2023-03-05T20:51:35.280Z,61.93
2023-03-05T20:54:05.262Z,62.00
2023-03-05T20:56:32.567Z,62.03
2023-03-05T20:59:02.276Z,62.14
2023-03-05T21:01:30.165Z,62.08
2023-03-05T21:04:01.024Z,62.01
2023-03-05T21:06:28.464Z,61.83
2023-03-05T21:08:55.456Z,61.86
2023-03-05T21:11:22.363Z,61.92
2023-03-05T21:13:49.209Z,62.00
2023-03-05T21:16:21.742Z,62.02
2023-03-05T21:18:50.257Z,62.09
2023-03-05T21:21:17.193Z,62.10
2023-03-05T21:23:44.205Z,62.38
2023-03-05T21:26:13.009Z,62.40
2023-03-05T21:28:40.398Z,62.35
2023-03-05T21:31:16.445Z,62.57
2023-03-05T21:33:44.103Z,62.60
2023-03-05T21:36:10.948Z,62.61
2023-03-05T21:38:38.264Z,62.67
2023-03-05T21:41:08.988Z,62.59
2023-03-05T21:43:36.168Z,62.43
2023-03-05T21:46:03.611Z,62.25
2023-03-05T21:48:30.777Z,62.17
2023-03-05T21:50:57.942Z,62.10
2023-03-05T21:53:27.841Z,61.96
2023-03-05T21:56:20.248Z,61.82
2023-03-05T21:58:51.754Z,61.58
2023-03-05T22:01:20.669Z,61.54
2023-03-05T22:03:47.513Z,61.22
2023-03-05T22:06:16.174Z,61.02
2023-03-05T22:08:42.825Z,60.78
2023-03-05T22:11:17.416Z,60.41
2023-03-05T22:13:44.603Z,60.39
2023-03-05T22:16:13.753Z,60.85
2023-03-05T22:18:40.533Z,61.25
2023-03-05T22:21:15.613Z,61.55
2023-03-05T22:23:42.299Z,61.81
2023-03-05T22:26:09.450Z,62.22
2023-03-05T22:28:38.312Z,62.49
2023-03-05T22:31:05.369Z,62.65
2023-03-05T22:33:32.032Z,62.67
2023-03-05T22:35:58.829Z,62.72
2023-03-05T22:38:26.303Z,62.75
2023-03-05T22:40:55.180Z,62.82
2023-03-05T22:43:21.939Z,62.84
2023-03-05T22:45:48.650Z,62.76
2023-03-05T22:48:15.351Z,62.85
2023-03-05T22:50:43.334Z,62.76
2023-03-05T22:53:10.820Z,62.70
2023-03-05T22:55:40.858Z,62.58
2023-03-05T22:58:07.793Z,62.46
2023-03-05T23:00:35.157Z,62.45
2023-03-05T23:03:01.970Z,62.27
2023-03-05T23:05:30.006Z,62.19
2023-03-05T23:07:56.949Z,62.12
2023-03-05T23:10:28.024Z,61.93
2023-03-05T23:12:55.958Z,61.92
2023-03-05T23:15:34.169Z,61.71
2023-03-05T23:18:01.605Z,61.71
2023-03-05T23:20:31.279Z,61.63
2023-03-05T23:22:58.038Z,61.76
2023-03-05T23:25:26.769Z,61.66
2023-03-05T23:27:54.118Z,61.60
2023-03-05T23:30:28.375Z,61.61
2023-03-05T23:33:01.338Z,61.53
2023-03-05T23:35:35.111Z,61.38
2023-03-05T23:38:05.985Z,61.46
2023-03-05T23:40:35.994Z,61.54
2023-03-05T23:43:02.735Z,61.79
2023-03-05T23:45:29.559Z,61.74
2023-03-05T23:47:57.906Z,61.71
2023-03-05T23:50:27.906Z,61.77
2023-03-05T23:52:55.128Z,61.73
2023-03-05T23:55:27.660Z,61.78
2023-03-05T23:57:58.066Z,61.71
